Memphis International Airport

KMEM · Mississippi, United States

METAR history KMEM · Memphis International Airport

Below you see METARs of the last few days. Select a year to browse through older METARs, from the year 2007 onwards.

April 19, 2024

Time Code Weather Temp. Visibility Ceiling Wind METAR/SPECI
11:54
M
15 °C 9 mi 1,200 ft 360° 360° 12 - 17 kt METAR KMEM 191654Z 36012G17KT 9SM OVC012 15/12 A3013 RMK AO2 SLP201 T01500117
10:54
M
14 °C 9 mi 1,100 ft 040° 040° 10 kt METAR KMEM 191554Z 04010KT 9SM OVC011 14/12 A3013 RMK AO2 SLP202 T01440117
09:54
M
14 °C 7 mi 1,100 ft 020° 020° 12 - 17 kt METAR KMEM 191454Z 02012G17KT 7SM OVC011 14/11 A3012 RMK AO2 SLP199 60000 T01440111 51010
08:54
M
14 °C 7 mi 1,200 ft 010° 010° 14 - 20 kt METAR KMEM 191354Z 01014G20KT 7SM OVC012 14/12 A3011 RMK AO2 SLP194 T01390117
07:54
I
13 °C 6 mi 800 ft 350° 350° 12 kt METAR KMEM 191254Z 35012KT 6SM BR OVC008 13/12 A3009 RMK AO2 DZB09E17 SLP188 P0000 T01330122
06:54
I
14 °C 6 mi 800 ft 360° 360° 11 kt METAR KMEM 191154Z 36011KT 6SM BR OVC008 14/13 A3007 RMK AO2 DZB27E44 SLP181 P0000 60001 70006 T01440133 10211 20144 53029
05:54
I
16 °C 5 mi 500 ft 360° 360° 13 kt METAR KMEM 191054Z 36013KT 5SM BR OVC005 16/15 A3004 RMK AO2 DZE36 SLP169 P0000 T01610150
04:54
I
18 °C 4 mi 500 ft 330° 330° 11 kt METAR KMEM 190954Z 33011KT 4SM -DZ BR OVC005 18/18 A3001 RMK AO2 DZB41 SLP158 P0000 T01830178
03:54
I
19 °C 7 mi 800 ft 270° 270° 3 kt METAR KMEM 190854Z 27003KT 7SM BKN008 BKN024 OVC032 19/19 A2999 RMK AO2 WSHFT 0745 RAE13B36E43DZB13E36 TSE04 SLP151 OCNL LTG DSNT SE P0001 60001 T01940189 53011
03:43
I
19 °C 7 mi 800 ft 240° 240° 4 kt METAR KMEM 190843Z 24004KT 7SM BKN008 BKN024 OVC030 19/19 A2999 RMK AO2 WSHFT 0745 LTG DSNT E AND SE RAE13B36E43DZB13E36 TSE04 P0001 T01940189
03:37
M
19 °C 5 mi 1,900 ft 300° 300° 3 kt METAR KMEM 190837Z 30003KT 5SM -RA BR FEW008 BKN019 OVC024 19/19 A2998 RMK AO2 WSHFT 0745 LTG DSNT E RAE13B36DZB13E36 TSE04 P0001 T01940189
03:29
I
19 °C 3 mi 2,400 ft 260° 260° 3 kt METAR KMEM 190829Z 26003KT 3SM -DZ BR FEW008 OVC024 19/19 A2999 RMK AO2 WSHFT 0745 LTG DSNT E RAE13DZB13 TSE04 P0001 T01940194
03:14
I
20 °C 2 mi 1,000 ft 280° 280° 6 kt METAR KMEM 190814Z 28006KT 2SM -DZ BR OVC010 20/19 A2999 RMK AO2 WSHFT 0745 LTG DSNT E RAE13DZB13 TSE04 CIG 007V015 P0001 T02000189
03:04
M
20 °C 5 mi 1,100 ft 280° 280° 10 - 20 kt METAR KMEM 190804Z 28010G20KT 5SM -RA BR BKN011 OVC029 20/19 A2998 RMK AO2 WSHFT 0745 LTG DSNT NE AND E AND SW TSE04 P0000 T02000189
02:54
M
21 °C 8 mi 2,900 ft 300° 300° 13 - 20 kt METAR KMEM 190754Z 30013G20KT 8SM -TSRA FEW013 BKN029 OVC050CB 21/19 A2997 RMK AO2 RAB46 TSB22 SLP145 OCNL LTGIC NE TS NE MOV SE P0000 T02060189
02:23
V
21 °C 10 mi 5,000 ft 220° 220° 13 - 20 kt METAR KMEM 190723Z 22013G20KT 10SM TS FEW029 BKN050CB OVC180 21/18 A2993 RMK AO2 TSB22 FRQ LTGICCA NW-NE TS NW-NE MOV SE T02110183
02:10
M
21 °C 10 mi 2,900 ft 220° 220° 12 - 20 kt METAR KMEM 190710Z 22012G20KT 10SM BKN029 21/18 A2993 RMK AO2 LTG DSNT N AND NE T02060183
01:54
M
21 °C 10 mi 3,000 ft 200° 200° 10 - 17 kt METAR KMEM 190654Z 20010G17KT 10SM FEW020 BKN030 OVC250 21/18 A2992 RMK AO2 LTG DSNT N SLP128 T02060183
01:13
V
20 °C 10 mi 25,000 ft 200° 200° 7 kt METAR KMEM 190613Z 20007KT 10SM FEW035 OVC250 20/18 A2993 RMK AO2 LTG DSNT N PRESFR T02000178
00:54
V
21 °C 10 mi 3,800 ft 200° 200° 7 kt METAR KMEM 190554Z 20007KT 10SM BKN038 OVC250 21/18 A2995 RMK AO2 SLP139 T02060178 10211 20200 402830200 58000

April 18, 2024

Time Code Weather Temp. Visibility Ceiling Wind METAR/SPECI
23:54
V
20 °C 10 mi - 200° 200° 9 - 19 kt METAR KMEM 190454Z 20009G19KT 10SM SCT040 20/18 A2996 RMK AO2 SLP141 T02000178
23:05
V
20 °C 10 mi 3,300 ft 200° 200° 11 kt METAR KMEM 190405Z 20011KT 10SM SCT024 BKN033 20/18 A2995 RMK AO2 T02000183
22:54
M
20 °C 10 mi 2,600 ft 210° 210° 11 - 18 kt METAR KMEM 190354Z 21011G18KT 10SM BKN026 BKN031 20/18 A2996 RMK AO2 SLP140 T02000183
22:25
M
20 °C 10 mi 2,800 ft 200° 200° 9 - 17 kt METAR KMEM 190325Z 20009G17KT 10SM BKN028 OVC038 20/18 A2994 RMK AO2 T02000183
21:54
V
20 °C 10 mi 3,700 ft 200° 200° 6 kt METAR KMEM 190254Z 20006KT 10SM FEW030 BKN037 20/18 A2996 RMK AO2 SLP140 T02000183 53005
21:14
V
20 °C 10 mi 3,100 ft 200° 200° 6 kt METAR KMEM 190214Z 20006KT 10SM BKN031 20/19 A2996 RMK AO2 T02000189
20:54
V
20 °C 10 mi - 200° 200° 8 kt METAR KMEM 190154Z 20008KT 10SM SCT039 20/18 A2995 RMK AO2 SLP139 T02000183
20:22
V
21 °C 10 mi 4,100 ft 190° 190° 11 kt METAR KMEM 190122Z 19011KT 10SM BKN041 BKN049 21/18 A2994 RMK AO2 T02060183
19:54
V
21 °C 10 mi 3,800 ft 190° 190° 8 kt METAR KMEM 190054Z 19008KT 10SM OVC038 21/19 A2994 RMK AO2 SLP134 T02060189
18:54
V
21 °C 10 mi 4,000 ft 210° 210° 7 kt METAR KMEM 182354Z 21007KT 10SM OVC040 21/19 A2994 RMK AO2 LTG DSNT E AND SE RAE52 SLP135 P0005 60005 T02110194 10283 20211 50004
18:42
V
21 °C 8 mi 4,000 ft 200° 200° 9 kt METAR KMEM 182342Z 20009KT 8SM -RA FEW029 OVC040 21/19 A2994 RMK AO2 LTG DSNT E AND SE P0005 T02110194
18:33
V
21 °C 8 mi 3,700 ft 190° 190° 10 kt METAR KMEM 182333Z 19010KT 8SM -RA FEW022 SCT027 OVC037 21/19 A2995 RMK AO2 LTG DSNT E P0005 T02110194
18:20
M
21 °C 10 mi 2,900 ft 210° 210° 8 kt METAR KMEM 182320Z 21008KT 10SM -RA SCT022 BKN029 OVC050 21/19 A2995 RMK AO2 LTG DSNT E AND SE P0005 T02110194
17:54
V
22 °C 10 mi 3,900 ft 210° 210° 9 kt METAR KMEM 182254Z 21009KT 10SM -RA FEW031 BKN039 OVC050 22/19 A2995 RMK AO2 LTG DSNT SE RAB36 SLP140 P0000 T02220194
16:54
V
24 °C 10 mi 4,700 ft 200° 200° 15 - 24 kt METAR KMEM 182154Z 20015G24KT 10SM SCT032 BKN047 BKN250 24/18 A2993 RMK AO2 PK WND 18027/2140 RAB06E23 SLP132 P0000 T02440183
16:05
V
26 °C 10 mi 4,800 ft 200° 200° 18 - 24 kt METAR KMEM 182105Z 20018G24KT 10SM SCT035 BKN048 26/19 A2993 RMK AO2 T02560189
15:54
V
26 °C 10 mi 3,500 ft 190° 190° 18 - 25 kt METAR KMEM 182054Z 19018G25KT 10SM BKN035 BKN070 26/18 A2993 RMK AO2 PK WND 18027/1956 DZB02E06RAB06E13 SLP130 P0000 60000 T02560183 56022
14:54
V
26 °C 8 mi 3,800 ft 190° 190° 16 - 23 kt METAR KMEM 181954Z 19016G23KT 8SM BKN038 BKN041 BKN060 26/19 A2993 RMK AO2 PK WND 18026/1926 LTG DSNT S AND SW SLP131 LTG DSNT S AND SW CB DSNT S AND SW T02610189
13:54
V
27 °C 8 mi 3,100 ft 170° 170° 14 kt METAR KMEM 181854Z 17014KT 8SM BKN031 BKN041 BKN050 27/20 A2996 RMK AO2 SLP142 T02670200
13:37
V
27 °C 8 mi 3,100 ft 170° 170° 12 kt METAR KMEM 181837Z 17012KT 8SM BKN031 BKN041 BKN050 27/20 A2997 RMK AO2 T02670200
12:54
M
27 °C 7 mi 2,400 ft 160° 160° 9 - 18 kt METAR KMEM 181754Z 16009G18KT 7SM BKN024 BKN029 BKN040 27/21 A2999 RMK AO2 SLP152 T02670206 10267 20211 58008
11:54
M
26 °C 7 mi 2,100 ft 190° 190° 14 - 20 kt METAR KMEM 181654Z 19014G20KT 7SM BKN021 BKN030 BKN055 26/21 A3001 RMK AO2 SLP157 T02560206
10:54
M
25 °C 7 mi 1,900 ft 150° 150° 9 kt METAR KMEM 181554Z 15009KT 7SM BKN019 BKN022 25/21 A3001 RMK AO2 SLP158 T02500211
10:14
M
23 °C 7 mi 1,500 ft 190° 190° 8 kt METAR KMEM 181514Z 19008KT 7SM BKN015 BKN027 OVC050 23/21 A3002 RMK AO2 T02330206
09:54
M
24 °C 7 mi 1,300 ft 160° 160° 8 kt METAR KMEM 181454Z 16008KT 7SM BKN013 BKN027 OVC048 24/21 A3002 RMK AO2 SLP161 T02390206 50004
08:54
M
23 °C 6 mi 1,000 ft 180° 180° 7 kt METAR KMEM 181354Z 18007KT 6SM BR BKN010 BKN034 23/21 A3002 RMK AO2 SLP162 T02280206
07:54
I
22 °C 6 mi 700 ft 170° 170° 7 kt METAR KMEM 181254Z 17007KT 6SM BR OVC007 22/20 A3001 RMK AO2 SLP160 T02170200
06:54
I
21 °C 5 mi 700 ft 160° 160° 7 kt METAR KMEM 181154Z 16007KT 5SM BR OVC007 21/20 A3001 RMK AO2 SLP157 T02110200 10217 20206 53001
05:54
I
21 °C 5 mi 600 ft 150° 150° 6 kt METAR KMEM 181054Z 15006KT 5SM BR OVC006 21/20 A3000 RMK AO2 SLP153 T02110200
05:41
I
21 °C 5 mi 600 ft 170° 170° 6 kt METAR KMEM 181041Z 17006KT 5SM BR BKN006 BKN021 21/20 A2999 RMK AO2 T02110200
05:25
V
21 °C 5 mi - 160° 160° 5 kt METAR KMEM 181025Z 16005KT 5SM BR FEW009 FEW023 21/20 A2999 RMK AO2 T02110200
04:54
I
22 °C 5 mi 800 ft 170° 170° 7 kt METAR KMEM 180954Z 17007KT 5SM BR OVC008 22/20 A3000 RMK AO2 SLP153 T02170200
03:54
I
22 °C 7 mi 900 ft 200° 200° 8 kt METAR KMEM 180854Z 20008KT 7SM OVC009 22/20 A3000 RMK AO2 SLP155 T02170200 55006
02:54
I
22 °C 5 mi 800 ft 200° 200° 9 kt METAR KMEM 180754Z 20009KT 5SM BR OVC008 22/20 A2999 RMK AO2 SLP152 T02170200
01:54
I
21 °C 5 mi 700 ft 200° 200° 8 kt METAR KMEM 180654Z 20008KT 5SM BR OVC007 21/21 A3001 RMK AO2 SLP159 T02110206
00:54
I
21 °C 7 mi 700 ft 190° 190° 9 - 18 kt METAR KMEM 180554Z 19009G18KT 7SM BKN007 21/21 A3002 RMK AO2 SLP163 T02110206 10256 20211 402780206 50003
00:42
I
21 °C 7 mi 700 ft 190° 190° 10 kt METAR KMEM 180542Z 19010KT 7SM BKN007 21/20 A3002 RMK AO2 T02110200

April 17, 2024

Time Code Weather Temp. Visibility Ceiling Wind METAR/SPECI
23:54
V
22 °C 10 mi - 190° 190° 8 kt METAR KMEM 180454Z 19008KT 10SM CLR 22/20 A3002 RMK AO2 SLP164 T02170200
22:54
V
22 °C 10 mi - 200° 200° 7 kt METAR KMEM 180354Z 20007KT 10SM FEW250 22/20 A3002 RMK AO2 SLP162 T02220200
21:54
V
23 °C 10 mi 25,000 ft 190° 190° 7 kt METAR KMEM 180254Z 19007KT 10SM BKN250 23/19 A3001 RMK AO2 SLP160 T02280194 51016
20:54
V
23 °C 10 mi 25,000 ft 200° 200° 6 kt METAR KMEM 180154Z 20006KT 10SM BKN250 23/18 A3001 RMK AO2 SLP158 T02280183
19:54
V
24 °C 10 mi 25,000 ft 200° 200° 3 kt METAR KMEM 180054Z 20003KT 10SM FEW040 BKN250 24/17 A2998 RMK AO2 SLP150 T02440172
18:54
V
26 °C 10 mi 25,000 ft 230° 230° 5 kt METAR KMEM 172354Z 23005KT 10SM FEW045 BKN250 26/18 A2997 RMK AO2 SLP144 T02560178 10278 20250 53002
17:54
V
27 °C 10 mi 25,000 ft 210° 210° 6 kt METAR KMEM 172254Z 21006KT 10SM FEW045 BKN250 27/18 A2996 RMK AO2 SLP141 T02670183
16:54
V
27 °C 10 mi 25,000 ft 250° 250° 8 kt METAR KMEM 172154Z 25008KT 10SM FEW042 BKN250 27/18 A2996 RMK AO2 SLP141 T02670178
15:54
V
27 °C 10 mi 21,000 ft 220° 220° 10 - 16 kt METAR KMEM 172054Z 22010G16KT 10SM FEW041 SCT047 BKN210 27/18 A2996 RMK AO2 SLP141 T02670183 56012
14:54
V
26 °C 10 mi 4,000 ft 210° 210° 7 kt METAR KMEM 171954Z 21007KT 10SM BKN040 BKN200 26/19 A2997 RMK AO2 SLP145 T02610189
13:54
V
26 °C 10 mi 20,000 ft Var Var 5 kt METAR KMEM 171854Z VRB05KT 10SM FEW023 SCT034 BKN200 26/19 A2998 RMK AO2 SLP149 T02610194
13:40
V
26 °C 10 mi 20,000 ft 230° 230° 6 - 17 kt METAR KMEM 171840Z 23006G17KT 10SM FEW003 FEW023 SCT034 OVC200 26/19 A2999 RMK AO2 T02610194
12:54
V
25 °C 10 mi 4,700 ft 230° 230° 9 - 23 kt METAR KMEM 171754Z 23009G23KT 10SM FEW023 SCT030 OVC047 25/20 A3000 RMK AO2 SLP154 T02500200 10250 20211 58000
11:54
V
24 °C 10 mi 4,700 ft 250° 250° 9 - 21 kt METAR KMEM 171654Z 25009G21KT 10SM SCT018 SCT037 OVC047 24/20 A3001 RMK AO2 SLP160 T02440200
11:14
V
24 °C 10 mi 4,700 ft 230° 230° 10 - 22 kt METAR KMEM 171614Z 23010G22KT 190V260 10SM FEW018 SCT037 OVC047 24/20 A3001 RMK AO2 T02390200
10:54
M
23 °C 10 mi 1,400 ft 220° 220° 7 kt METAR KMEM 171554Z 22007KT 10SM BKN014 BKN022 OVC037 23/20 A3000 RMK AO2 SLP157 T02330200
09:54
M
23 °C 10 mi 1,400 ft 240° 240° 10 - 21 kt METAR KMEM 171454Z 24010G21KT 10SM BKN014 BKN022 OVC037 23/20 A3000 RMK AO2 SLP155 T02280200 52012
08:54
M
22 °C 10 mi 2,200 ft 280° 280° 7 - 17 kt METAR KMEM 171354Z 28007G17KT 10SM SCT014 BKN022 OVC037 22/19 A2998 RMK AO2 SLP150 T02170194
07:54
M
22 °C 10 mi 2,000 ft 210° 210° 12 kt METAR KMEM 171254Z 21012KT 10SM SCT014 BKN020 BKN037 OVC250 22/19 A2998 RMK AO2 SLP148 T02170194
07:44
M
21 °C 10 mi 2,700 ft 220° 220° 12 - 19 kt METAR KMEM 171244Z 22012G19KT 10SM SCT014 BKN027 BKN035 OVC250 21/19 A2998 RMK AO2 T02110194
07:28
M
21 °C 10 mi 1,400 ft 210° 210° 11 - 19 kt METAR KMEM 171228Z 21011G19KT 10SM BKN014 BKN027 OVC035 21/19 A2997 RMK AO2 T02110189
06:54
M
21 °C 10 mi 1,500 ft 210° 210° 9 kt METAR KMEM 171154Z 21009KT 10SM BKN015 OVC021 21/19 A2996 RMK AO2 SLP143 60000 70008 T02110189 10222 20206 53011
05:54
V
21 °C 10 mi 25,000 ft 210° 210° 9 kt METAR KMEM 171054Z 21009KT 10SM FEW015 FEW040 OVC250 21/19 A2995 RMK AO2 SLP138 T02060189
05:08
V
21 °C 10 mi 25,000 ft 200° 200° 9 - 17 kt METAR KMEM 171008Z 20009G17KT 10SM FEW015 FEW047 SCT100 OVC250 21/19 A2994 RMK AO2 T02110189
04:54
V
21 °C 10 mi 3,700 ft 200° 200° 10 kt METAR KMEM 170954Z 20010KT 10SM FEW016 BKN037 BKN100 21/19 A2993 RMK AO2 SLP133 T02110189
04:09
V
22 °C 10 mi 25,000 ft 200° 200° 11 kt METAR KMEM 170909Z 20011KT 10SM FEW029 FEW041 OVC250 22/19 A2993 RMK AO2 T02170189
03:54
V
22 °C 10 mi 3,600 ft 210° 210° 10 - 15 kt METAR KMEM 170854Z 21010G15KT 10SM FEW026 BKN036 OVC055 22/19 A2993 RMK AO2 SLP130 60000 T02170189 53006
03:27
V
22 °C 10 mi 3,300 ft 210° 210° 8 kt METAR KMEM 170827Z 21008KT 10SM BKN033 BKN055 OVC085 22/19 A2993 RMK AO2 T02170189
02:54
V
22 °C 10 mi 5,500 ft 210° 210° 13 - 21 kt METAR KMEM 170754Z 21013G21KT 10SM BKN055 OVC085 22/19 A2992 RMK AO2 RAB22E40 SLP126 P0000 T02220189
01:54
V
22 °C 10 mi 5,500 ft 190° 190° 10 kt METAR KMEM 170654Z 19010KT 10SM OVC055 22/19 A2991 RMK AO2 SLP124 T02170189
00:54
V
22 °C 10 mi 6,000 ft 200° 200° 11 - 19 kt METAR KMEM 170554Z 20011G19KT 10SM BKN060 OVC080 22/19 A2991 RMK AO2 LTG DSNT E RAE14 TSE14 SLP124 P0000 60007 T02170189 10233 20206 402720194 50009
Report a change